Map

Track Data

SID SEASON NUMBER BASIN SUBBASIN NAME ISO_TIME NATURE LAT LON WMO_WIND WMO_PRES WMO_AGENCY TRACK_TYPE DIST2LAND LANDFALL IFLAG USA_AGENCY USA_ATCF_ID USA_LAT USA_LON USA_RECORD USA_STATUS USA_WIND USA_PRES USA_SSHS USA_R34_NE USA_R34_SE USA_R34_SW USA_R34_NW USA_R50_NE USA_R50_SE USA_R50_SW USA_R50_NW USA_R64_NE USA_R64_SE USA_R64_SW USA_R64_NW USA_POCI USA_ROCI USA_RMW USA_EYE TOKYO_LAT TOKYO_LON TOKYO_GRADE TOKYO_WIND TOKYO_PRES TOKYO_R50_DIR TOKYO_R50_LONG TOKYO_R50_SHORT TOKYO_R30_DIR TOKYO_R30_LONG TOKYO_R30_SHORT TOKYO_LAND CMA_LAT CMA_LON CMA_CAT CMA_WIND CMA_PRES HKO_LAT HKO_LON HKO_CAT HKO_WIND HKO_PRES NEWDELHI_LAT NEWDELHI_LON NEWDELHI_GRADE NEWDELHI_WIND NEWDELHI_PRES NEWDELHI_CI NEWDELHI_DP NEWDELHI_POCI REUNION_LAT REUNION_LON REUNION_TYPE REUNION_WIND REUNION_PRES REUNION_TNUM REUNION_CI REUNION_RMW REUNION_R34_NE REUNION_R34_SE REUNION_R34_SW REUNION_R34_NW REUNION_R50_NE REUNION_R50_SE REUNION_R50_SW REUNION_R50_NW REUNION_R64_NE REUNION_R64_SE REUNION_R64_SW REUNION_R64_NW BOM_LAT BOM_LON BOM_TYPE BOM_WIND BOM_PRES BOM_TNUM BOM_CI BOM_RMW BOM_R34_NE BOM_R34_SE BOM_R34_SW BOM_R34_NW BOM_R50_NE BOM_R50_SE BOM_R50_SW BOM_R50_NW BOM_R64_NE BOM_R64_SE BOM_R64_SW BOM_R64_NW BOM_ROCI BOM_POCI BOM_EYE BOM_POS_METHOD BOM_PRES_METHOD NADI_LAT NADI_LON NADI_CAT NADI_WIND NADI_PRES WELLINGTON_LAT WELLINGTON_LON WELLINGTON_WIND WELLINGTON_PRES DS824_LAT DS824_LON DS824_STAGE DS824_WIND DS824_PRES TD9636_LAT TD9636_LON TD9636_STAGE TD9636_WIND TD9636_PRES TD9635_LAT TD9635_LON TD9635_WIND TD9635_PRES TD9635_ROCI NEUMANN_LAT NEUMANN_LON NEUMANN_CLASS NEUMANN_WIND NEUMANN_PRES MLC_LAT MLC_LON MLC_CLASS MLC_WIND MLC_PRES USA_GUST BOM_GUST BOM_GUST_PER REUNION_GUST REUNION_GUST_PER USA_SEAHGT USA_SEARAD_NE USA_SEARAD_SE USA_SEARAD_SW USA_SEARAD_NW STORM_SPEED STORM_DIR
1944039S15056 1944 11 SI MM NOT_NAMED 1944-02-08 06:00:00 NR -14.7000 56.0000 main 593 571 __________O___ -1 -14.7000 56.0000 7 5 232
1944039S15056 1944 11 SI MM NOT_NAMED 1944-02-08 09:00:00 NR -14.8486 55.8001 main 571 548 __________P___ -1 -14.8486 55.8001 7 5 231
1944039S15056 1944 11 SI MM NOT_NAMED 1944-02-08 12:00:00 NR -15.0077 55.6101 main 548 525 __________P___ -1 -15.0077 55.6101 7 5 226
1944039S15056 1944 11 SI MM NOT_NAMED 1944-02-08 15:00:00 NR -15.1880 55.4400 main 525 514 __________P___ -1 -15.1880 55.4400 7 5 217
1944039S15056 1944 11 SI MM NOT_NAMED 1944-02-08 18:00:00 NR -15.4000 55.3000 main 514 504 __________O___ -1 -15.4000 55.3000 7 5 206
1944039S15056 1944 11 SI MM NOT_NAMED 1944-02-08 21:00:00 NR -15.6502 55.1995 main 504 495 __________P___ -1 -15.6502 55.1995 7 6 196
1944039S15056 1944 11 SI MM NOT_NAMED 1944-02-09 00:00:00 NR -15.9273 55.1452 main 495 495 __________P___ -1 -15.9273 55.1452 7 6 185
1944039S15056 1944 11 SI MM NOT_NAMED 1944-02-09 03:00:00 NR -16.2158 55.1433 main 500 470 __________P___ -1 -16.2158 55.1433 7 6 174
1944039S15056 1944 11 SI MM NOT_NAMED 1944-02-09 06:00:00 NR -16.5000 55.2000 main 470 436 __________O___ -1 -16.5000 55.2000 7 6 163
1944039S15056 1944 11 SI MM NOT_NAMED 1944-02-09 09:00:00 NR -16.7735 55.3212 main 436 405 __________P___ -1 -16.7735 55.3212 7 6 152
1944039S15056 1944 11 SI MM NOT_NAMED 1944-02-09 12:00:00 NR -17.0377 55.4970 main 405 366 __________P___ -1 -17.0377 55.4970 7 6 145
1944039S15056 1944 11 SI MM NOT_NAMED 1944-02-09 15:00:00 NR -17.2829 55.6994 main 366 336 __________P___ -1 -17.2829 55.6994 7 6 140
1944039S15056 1944 11 SI MM NOT_NAMED 1944-02-09 18:00:00 NR -17.5000 55.9000 main 336 306 __________O___ -1 -17.5000 55.9000 7 5 139
1944039S15056 1944 11 SI MM NOT_NAMED 1944-02-09 21:00:00 NR -17.6828 56.0614 main 306 291 __________P___ -1 -17.6828 56.0614 7 5 138
1944039S15056 1944 11 SI MM NOT_NAMED 1944-02-10 00:00:00 NR -17.8374 56.2152 main 291 261 __________P___ -1 -17.8374 56.2152 7 4 136
1944039S15056 1944 11 SI MM NOT_NAMED 1944-02-10 03:00:00 NR -17.9734 56.3614 main 261 247 __________P___ -1 -17.9734 56.3614 7 4 134
1944039S15056 1944 11 SI MM NOT_NAMED 1944-02-10 06:00:00 NR -18.1000 56.5000 main 247 232 __________O___ -1 -18.1000 56.5000 7 4 136
1944039S15056 1944 11 SI MM NOT_NAMED 1944-02-10 09:00:00 NR -18.2321 56.6283 main 232 207 __________P___ -1 -18.2321 56.6283 7 4 137
1944039S15056 1944 11 SI MM NOT_NAMED 1944-02-10 12:00:00 NR -18.3574 56.7502 main 203 189 __________P___ -1 -18.3574 56.7502 7 3 137
1944039S15056 1944 11 SI MM NOT_NAMED 1944-02-10 15:00:00 NR -18.4790 56.8720 main 189 175 __________P___ -1 -18.4790 56.8720 7 3 135
1944039S15056 1944 11 SI MM NOT_NAMED 1944-02-10 18:00:00 NR -18.6000 57.0000 main 175 162 __________O___ -1 -18.6000 57.0000 7 3 132
1944039S15056 1944 11 SI MM NOT_NAMED 1944-02-10 21:00:00 NR -18.7047 57.1390 main 162 146 __________P___ -1 -18.7047 57.1390 7 3 128
1944039S15056 1944 11 SI MM NOT_NAMED 1944-02-11 00:00:00 NR -18.8125 57.2853 main 146 134 __________P___ -1 -18.8125 57.2853 7 4 129
1944039S15056 1944 11 SI MM NOT_NAMED 1944-02-11 03:00:00 NR -18.9390 57.4390 main 134 111 __________P___ -1 -18.9390 57.4390 7 4 134
1944039S15056 1944 11 SI MM NOT_NAMED 1944-02-11 06:00:00 NR -19.1000 57.6000 main 111 89 __________O___ -1 -19.1000 57.6000 7 5 142
1944039S15056 1944 11 SI MM NOT_NAMED 1944-02-11 09:00:00 NR -19.3261 57.7556 main 90 59 __________P___ -1 -19.3261 57.7556 7 6 148
1944039S15056 1944 11 SI MM NOT_NAMED 1944-02-11 12:00:00 NR -19.5848 57.9200 main 59 45 __________P___ -1 -19.5848 57.9200 7 6 148
1944039S15056 1944 11 SI MM NOT_NAMED 1944-02-11 15:00:00 NR -19.8511 58.0994 main 47 47 __________P___ -1 -19.8511 58.0994 7 6 145
1944039S15056 1944 11 SI MM NOT_NAMED 1944-02-11 18:00:00 NR -20.1000 58.3000 main 56 56 __________O___ -1 -20.1000 58.3000 7 6 135
1944039S15056 1944 11 SI MM NOT_NAMED 1944-02-11 21:00:00 NR -20.2682 58.5370 main 72 72 __________P___ -1 -20.2682 58.5370 7 6 125
1944039S15056 1944 11 SI MM NOT_NAMED 1944-02-12 00:00:00 NR -20.4202 58.7931 main 104 104 __________P___ -1 -20.4202 58.7931 7 6 123
1944039S15056 1944 11 SI MM NOT_NAMED 1944-02-12 03:00:00 NR -20.5870 59.0527 main 139 139 __________P___ -1 -20.5870 59.0527 7 6 129
1944039S15056 1944 11 SI MM NOT_NAMED 1944-02-12 06:00:00 NR -20.8000 59.3000 main 165 165 __________O___ -1 -20.8000 59.3000 7 7 140
1944039S15056 1944 11 SI MM NOT_NAMED 1944-02-12 09:00:00 NR -21.1036 59.5184 main 198 198 __________P___ -1 -21.1036 59.5184 7 8 149
1944039S15056 1944 11 SI MM NOT_NAMED 1944-02-12 12:00:00 NR -21.4549 59.7224 main 235 235 __________P___ -1 -21.4549 59.7224 7 8 153
1944039S15056 1944 11 SI MM NOT_NAMED 1944-02-12 15:00:00 NR -21.8287 59.9153 main 270 270 __________P___ -1 -21.8287 59.9153 7 8 155
1944039S15056 1944 11 SI MM NOT_NAMED 1944-02-12 18:00:00 NR -22.2000 60.1000 main 312 312 __________O___ -1 -22.2000 60.1000 7 7 156
1944039S15056 1944 11 SI MM NOT_NAMED 1944-02-12 21:00:00 NR -22.5074 60.2471 main 341 341 __________P___ -1 -22.5074 60.2471 7 7 156
1944039S15056 1944 11 SI MM NOT_NAMED 1944-02-13 00:00:00 NR -22.8118 60.3922 main 379 379 __________P___ -1 -22.8118 60.3922 7 7 155
1944039S15056 1944 11 SI MM NOT_NAMED 1944-02-13 03:00:00 NR -23.1353 60.5662 main 417 417 __________P___ -1 -23.1353 60.5662 7 8 151
1944039S15056 1944 11 SI MM NOT_NAMED 1944-02-13 06:00:00 NR -23.5000 60.8000 main 463 463 __________O___ -1 -23.5000 60.8000 7 10 148
1944039S15056 1944 11 SI MM NOT_NAMED 1944-02-13 09:00:00 NR -23.9482 61.1225 main 516 516 __________P___ -1 -23.9482 61.1225 7 11 145
1944039S15056 1944 11 SI MM NOT_NAMED 1944-02-13 12:00:00 NR -24.4351 61.5092 main 585 585 __________P___ -1 -24.4351 61.5092 7 12 143
1944039S15056 1944 11 SI MM NOT_NAMED 1944-02-13 15:00:00 NR -24.9294 61.9415 main 653 653 __________P___ -1 -24.9294 61.9415 7 13 140
1944039S15056 1944 11 SI MM NOT_NAMED 1944-02-13 18:00:00 NR -25.4000 62.4000 main 728 728 __________O___ -1 -25.4000 62.4000 7 12 137
1944039S15056 1944 11 SI MM NOT_NAMED 1944-02-13 21:00:00 NR -25.8236 62.8680 main 795 795 __________P___ -1 -25.8236 62.8680 7 12 134
1944039S15056 1944 11 SI MM NOT_NAMED 1944-02-14 00:00:00 NR -26.2060 63.3413 main 855 855 __________P___ -1 -26.2060 63.3413 7 11 131
1944039S15056 1944 11 SI MM NOT_NAMED 1944-02-14 03:00:00 NR -26.5604 63.8189 main 922 922 __________P___ -1 -26.5604 63.8189 7 11 129
1944039S15056 1944 11 SI MM NOT_NAMED 1944-02-14 06:00:00 NR -26.9000 64.3000 main 980 __________O___ -1 -26.9000 64.3000 7 11 128

About IBTrACS Database

This database is a web-friendly format of International Best Track Archive for Climate Stewardship (IBTrACS), a global best track data archive curated by NOAA dating back to 1842.

Updated: 2021-10-21